createdAt,value
2023-05-06T00:00:40.213Z,97961.13
2023-05-06T00:03:07.561Z,97965.27
2023-05-06T00:05:34.982Z,97969.21
2023-05-06T00:08:02.187Z,97963.98
2023-05-06T00:10:29.419Z,97958.93
2023-05-06T00:12:57.016Z,97956.77
2023-05-06T00:15:24.633Z,97953.88
2023-05-06T00:17:51.820Z,97948.83
2023-05-06T00:20:19.137Z,97951.84
2023-05-06T00:22:46.610Z,97952.13
2023-05-06T00:25:14.051Z,97947.67
2023-05-06T00:27:41.507Z,97940.98
2023-05-06T00:30:10.061Z,97942.61
2023-05-06T00:32:37.456Z,97941.27
2023-05-06T00:35:05.132Z,97939.16
2023-05-06T00:37:32.374Z,97934.20
2023-05-06T00:39:59.562Z,97927.49
2023-05-06T00:42:27.199Z,97931.60
2023-05-06T00:44:54.550Z,97928.80
2023-05-06T00:47:22.973Z,97931.35
2023-05-06T00:49:51.756Z,97929.23
2023-05-06T00:52:20.548Z,97922.23
2023-05-06T00:54:48.186Z,97923.88
2023-05-06T00:57:15.652Z,97920.52
2023-05-06T00:59:43.245Z,97919.92
2023-05-06T01:05:13.295Z,97919.67
2023-05-06T01:07:43.959Z,97923.23
2023-05-06T01:10:23.082Z,97925.83
2023-05-06T01:13:10.590Z,97927.38
2023-05-06T01:15:54.993Z,97920.38
2023-05-06T01:18:26.985Z,97916.59
2023-05-06T01:21:23.718Z,97919.43
2023-05-06T01:24:30.989Z,97922.06
2023-05-06T01:27:03.147Z,97919.69
2023-05-06T01:30:01.743Z,97921.02
2023-05-06T01:32:46.443Z,97917.84
2023-05-06T01:35:51.310Z,97917.41
2023-05-06T01:38:52.244Z,97918.29
2023-05-06T01:41:34.427Z,97912.91
2023-05-06T01:44:08.990Z,97912.20
2023-05-06T01:46:45.155Z,97910.47
2023-05-06T01:49:36.062Z,97908.03
2023-05-06T01:52:40.929Z,97908.89
2023-05-06T01:56:02.512Z,97905.61
2023-05-06T01:58:59.576Z,97904.36
2023-05-06T02:01:57.355Z,97901.04
2023-05-06T02:04:49.084Z,97896.71
2023-05-06T02:07:37.983Z,97893.11
2023-05-06T02:11:04.491Z,97894.90
2023-05-06T02:13:42.730Z,97894.59
2023-05-06T02:16:35.602Z,97891.01
2023-05-06T02:19:45.190Z,97887.67
2023-05-06T02:22:58.230Z,97886.70
2023-05-06T02:26:17.564Z,97888.14
2023-05-06T02:29:25.651Z,97887.91
2023-05-06T02:32:18.874Z,97886.83
2023-05-06T02:34:48.030Z,97882.64
2023-05-06T02:37:39.415Z,97878.58
2023-05-06T02:40:10.403Z,97877.19
2023-05-06T02:42:44.733Z,97875.81
2023-05-06T02:45:39.353Z,97871.63
2023-05-06T02:48:35.310Z,97871.08
2023-05-06T02:51:22.440Z,97867.60
2023-05-06T02:53:56.589Z,97870.10
2023-05-06T02:57:03.607Z,97871.48
2023-05-06T03:00:24.459Z,97875.07
2023-05-06T03:03:23.157Z,97873.29
2023-05-06T03:06:40.936Z,97871.20
2023-05-06T03:10:28.857Z,97875.73
2023-05-06T03:14:11.039Z,97872.02
2023-05-06T03:17:10.636Z,97868.08
2023-05-06T03:20:27.756Z,97863.54
2023-05-06T03:23:33.432Z,97859.31
2023-05-06T03:26:37.271Z,97855.42
2023-05-06T03:29:48.524Z,97853.48
2023-05-06T03:33:06.063Z,97859.92
2023-05-06T03:36:22.077Z,97857.80
2023-05-06T03:39:40.513Z,97855.70
2023-05-06T03:42:30.354Z,97857.94
2023-05-06T03:45:35.067Z,97867.48
2023-05-06T03:48:43.902Z,97870.84
2023-05-06T03:51:51.363Z,97873.41
2023-05-06T03:54:58.462Z,97873.67
2023-05-06T03:58:25.601Z,97871.41
2023-05-06T04:01:31.871Z,97879.65
2023-05-06T04:04:13.190Z,97883.23
2023-05-06T04:07:43.193Z,97888.17
2023-05-06T04:11:10.546Z,97884.60
2023-05-06T04:14:37.477Z,97882.45
2023-05-06T04:18:04.809Z,97880.23
2023-05-06T04:21:30.944Z,97884.90
2023-05-06T04:24:58.429Z,97887.58
2023-05-06T04:28:27.958Z,97888.82
2023-05-06T04:31:56.452Z,97892.38
2023-05-06T04:34:58.849Z,97893.86
2023-05-06T04:38:17.611Z,97891.58
2023-05-06T04:41:27.663Z,97885.29
2023-05-06T04:44:17.802Z,97893.95
2023-05-06T04:47:26.026Z,97888.50
2023-05-06T04:50:34.936Z,97878.80
2023-05-06T04:54:02.040Z,97878.91
2023-05-06T04:57:28.866Z,97877.23
2023-05-06T05:00:32.269Z,97879.61
2023-05-06T05:03:47.035Z,97876.02
2023-05-06T05:06:41.985Z,97875.90
2023-05-06T05:09:54.460Z,97871.14
2023-05-06T05:13:02.459Z,97866.64
2023-05-06T05:16:25.367Z,97865.24
2023-05-06T05:20:10.717Z,97866.16
2023-05-06T05:23:30.847Z,97864.25
2023-05-06T05:26:55.204Z,97861.75
2023-05-06T05:30:02.889Z,97863.20
2023-05-06T05:33:09.829Z,97858.62
2023-05-06T05:36:29.472Z,97853.47
2023-05-06T05:39:51.138Z,97846.86
2023-05-06T05:42:25.569Z,97840.43
2023-05-06T05:45:55.761Z,97834.23
2023-05-06T05:49:42.641Z,97832.25
2023-05-06T05:53:24.282Z,97825.54
2023-05-06T05:57:11.269Z,97826.04
2023-05-06T06:00:49.219Z,97825.10
2023-05-06T06:04:27.519Z,97826.47
2023-05-06T06:07:07.399Z,97833.55
2023-05-06T06:10:43.102Z,97839.72
2023-05-06T06:14:39.951Z,97839.41
2023-05-06T06:18:36.356Z,97836.56
2023-05-06T06:22:36.948Z,97833.65
2023-05-06T06:40:34.218Z,97816.60
2023-05-06T06:43:01.634Z,97813.80
2023-05-06T06:45:28.983Z,97813.79
2023-05-06T06:47:56.381Z,97810.95
2023-05-06T06:50:23.568Z,97808.41
2023-05-06T06:52:50.725Z,97809.23
2023-05-06T06:55:18.075Z,97809.20
2023-05-06T06:57:45.179Z,97805.31
2023-05-06T07:00:12.908Z,97804.70
2023-05-06T07:02:40.547Z,97797.17
2023-05-06T07:05:08.202Z,97790.75
2023-05-06T07:07:35.848Z,97793.08
2023-05-06T07:10:03.526Z,97790.69
2023-05-06T07:12:30.753Z,97787.66
2023-05-06T07:14:58.119Z,97783.63
2023-05-06T07:17:25.502Z,97781.29
2023-05-06T07:19:52.700Z,97781.59
2023-05-06T07:22:19.910Z,97784.11
2023-05-06T07:24:47.368Z,97786.52
2023-05-06T07:27:14.601Z,97781.40
2023-05-06T07:29:41.769Z,97780.84
2023-05-06T07:32:10.032Z,97781.96
2023-05-06T07:34:37.420Z,97780.00
2023-05-06T07:37:05.040Z,97782.38
2023-05-06T07:39:33.027Z,97774.54
2023-05-06T07:42:00.378Z,97768.17
2023-05-06T07:44:27.478Z,97760.37
2023-05-06T07:46:54.794Z,97757.05
2023-05-06T07:49:22.324Z,97760.61
2023-05-06T07:51:49.511Z,97755.65
2023-05-06T07:54:16.769Z,97752.58
2023-05-06T07:56:44.429Z,97753.83
2023-05-06T07:59:12.405Z,97754.68
2023-05-06T08:01:39.861Z,97756.81
2023-05-06T08:04:08.061Z,97755.67
2023-05-06T08:06:35.241Z,97756.44
2023-05-06T08:09:03.442Z,97753.82
2023-05-06T08:11:30.605Z,97758.70
2023-05-06T08:13:57.806Z,97759.10
2023-05-06T08:16:25.724Z,97754.64
2023-05-06T08:18:53.050Z,97755.02
2023-05-06T08:21:20.478Z,97755.36
2023-05-06T08:23:47.693Z,97754.98
2023-05-06T08:26:14.876Z,97757.59
2023-05-06T08:28:42.068Z,97761.56
2023-05-06T08:31:09.802Z,97762.50
2023-05-06T08:33:36.980Z,97761.06
2023-05-06T08:36:04.362Z,97757.73
2023-05-06T08:38:31.679Z,97757.03
2023-05-06T08:41:03.800Z,97762.23
2023-05-06T08:43:35.859Z,97756.60
2023-05-06T08:46:03.084Z,97752.52
2023-05-06T08:48:30.406Z,97754.30
2023-05-06T08:51:02.346Z,97757.38
2023-05-06T08:53:30.720Z,97756.08
2023-05-06T08:56:01.171Z,97756.17
2023-05-06T08:58:28.542Z,97759.02
2023-05-06T09:00:55.772Z,97757.86
2023-05-06T09:03:23.219Z,97756.92
2023-05-06T09:05:50.807Z,97756.71
2023-05-06T09:08:18.106Z,97754.16
2023-05-06T09:10:46.660Z,97755.94
2023-05-06T09:13:15.474Z,97754.59
2023-05-06T09:15:44.556Z,97752.60
2023-05-06T09:18:12.460Z,97744.02
2023-05-06T09:20:50.028Z,97740.08
2023-05-06T09:23:18.630Z,97733.69
2023-05-06T09:25:47.716Z,97724.09
2023-05-06T09:28:15.897Z,97718.48
2023-05-06T09:30:45.575Z,97714.39
2023-05-06T09:33:13.095Z,97706.47
2023-05-06T09:35:43.457Z,97701.38
2023-05-06T09:38:10.933Z,97695.19
2023-05-06T09:40:39.308Z,97695.33
2023-05-06T09:43:07.214Z,97692.31
2023-05-06T09:45:34.587Z,97688.08
2023-05-06T09:48:01.892Z,97686.96
2023-05-06T09:50:29.660Z,97679.87
2023-05-06T09:52:57.181Z,97677.11
2023-05-06T09:55:27.402Z,97675.79
2023-05-06T09:57:56.816Z,97676.13
2023-05-06T10:00:28.461Z,97666.02
2023-05-06T10:02:56.711Z,97662.88
2023-05-06T10:05:27.296Z,97664.21
2023-05-06T10:07:57.639Z,97656.60
2023-05-06T10:10:25.610Z,97654.70
2023-05-06T10:12:53.488Z,97660.80
2023-05-06T10:15:20.815Z,97666.74
2023-05-06T10:17:50.966Z,97685.19
2023-05-06T10:20:19.982Z,97704.89
2023-05-06T10:23:10.971Z,97710.16
2023-05-06T10:25:43.161Z,97720.73
2023-05-06T10:28:16.649Z,97728.04
2023-05-06T10:30:56.343Z,97734.98
2023-05-06T10:33:25.316Z,97734.17
2023-05-06T10:36:01.719Z,97735.90
2023-05-06T10:38:38.556Z,97734.66
2023-05-06T10:41:09.027Z,97729.79
2023-05-06T10:43:41.924Z,97719.84
2023-05-06T10:46:17.740Z,97720.94
2023-05-06T10:49:09.168Z,97715.95
2023-05-06T10:51:37.584Z,97710.81
2023-05-06T10:54:09.566Z,97709.25
2023-05-06T10:57:03.060Z,97711.19
2023-05-06T10:59:31.640Z,97706.02
2023-05-06T11:02:05.573Z,97710.22
2023-05-06T11:04:35.675Z,97706.96
2023-05-06T11:07:14.789Z,97702.08
2023-05-06T11:10:00.040Z,97701.27
2023-05-06T11:12:47.125Z,97706.14
2023-05-06T11:15:37.541Z,97706.95
2023-05-06T11:18:37.460Z,97710.55
2023-05-06T11:21:07.494Z,97702.68
2023-05-06T11:23:43.885Z,97691.13
2023-05-06T11:26:12.425Z,97685.00
2023-05-06T11:28:45.079Z,97678.43
2023-05-06T11:31:22.905Z,97676.30
2023-05-06T11:33:59.193Z,97677.20
2023-05-06T11:36:28.897Z,97677.60
2023-05-06T11:39:00.199Z,97683.08
2023-05-06T11:41:27.581Z,97682.86
2023-05-06T11:43:54.903Z,97684.58
2023-05-06T11:46:24.090Z,97690.79
2023-05-06T11:48:51.554Z,97688.24
2023-05-06T11:51:25.149Z,97680.52
2023-05-06T11:53:53.740Z,97674.88
2023-05-06T11:56:21.301Z,97668.37
2023-05-06T11:58:49.242Z,97660.70
2023-05-06T12:01:16.426Z,97653.13
2023-05-06T12:03:43.849Z,97648.97
2023-05-06T12:06:13.305Z,97648.33
2023-05-06T12:08:40.749Z,97651.53
2023-05-06T12:11:09.380Z,97654.20
2023-05-06T12:13:37.378Z,97659.36
2023-05-06T12:16:05.520Z,97657.58
2023-05-06T12:18:33.034Z,97649.74
2023-05-06T12:21:06.998Z,97645.09
2023-05-06T12:23:34.289Z,97647.52
2023-05-06T12:26:06.997Z,97643.01
2023-05-06T12:29:48.949Z,97644.19
2023-05-06T12:33:39.139Z,97638.27
2023-05-06T12:37:26.448Z,97634.57
2023-05-06T12:41:13.857Z,97628.52
2023-05-06T12:45:17.179Z,97626.17
2023-05-06T12:48:56.294Z,97630.80
2023-05-06T12:52:49.638Z,97632.17
2023-05-06T12:56:47.179Z,97622.28
2023-05-06T13:00:15.559Z,97618.14
2023-05-06T13:03:57.366Z,97621.58
2023-05-06T13:07:33.926Z,97626.22
2023-05-06T13:11:04.963Z,97632.90
2023-05-06T13:14:44.914Z,97635.95
2023-05-06T13:18:28.361Z,97649.57
2023-05-06T13:22:16.466Z,97650.43
2023-05-06T13:26:06.154Z,97652.73
2023-05-06T13:29:52.790Z,97653.30
2023-05-06T13:33:20.800Z,97655.42
2023-05-06T13:37:08.533Z,97657.36
2023-05-06T13:40:58.417Z,97659.39
2023-05-06T13:44:46.895Z,97659.00
2023-05-06T13:48:37.499Z,97660.21
2023-05-06T13:52:27.634Z,97658.27
2023-05-06T13:56:22.610Z,97659.14
2023-05-06T14:00:09.759Z,97648.88
2023-05-06T14:03:58.876Z,97643.26
2023-05-06T14:07:49.495Z,97639.50
2023-05-06T14:11:43.198Z,97634.30
2023-05-06T14:15:33.228Z,97631.55
2023-05-06T14:19:22.373Z,97634.90
2023-05-06T14:23:12.904Z,97626.65
2023-05-06T14:27:00.523Z,97628.39
2023-05-06T14:30:52.837Z,97628.29
2023-05-06T14:34:40.553Z,97629.99
2023-05-06T14:38:37.583Z,97631.64
2023-05-06T14:42:25.398Z,97628.11
2023-05-06T14:46:21.902Z,97627.30
2023-05-06T14:50:08.682Z,97632.33
2023-05-06T14:53:56.050Z,97635.13
2023-05-06T14:57:31.878Z,97636.88
2023-05-06T15:00:59.508Z,97642.70
2023-05-06T15:04:46.989Z,97642.61
2023-05-06T15:08:34.151Z,97643.09
2023-05-06T15:12:02.898Z,97640.55
2023-05-06T15:15:30.503Z,97640.06
2023-05-06T15:19:17.906Z,97636.45
2023-05-06T15:22:46.476Z,97641.92
2023-05-06T15:26:33.693Z,97635.56
2023-05-06T15:30:20.709Z,97635.55
2023-05-06T15:34:14.204Z,97639.45
2023-05-06T15:38:01.776Z,97635.59
2023-05-06T15:41:51.882Z,97636.38
2023-05-06T15:45:39.002Z,97638.28
2023-05-06T15:49:49.303Z,97633.89
2023-05-06T16:06:25.876Z,97638.58
2023-05-06T16:10:29.142Z,97644.52
2023-05-06T16:14:16.921Z,97650.80
2023-05-06T16:18:04.550Z,97651.95
2023-05-06T16:21:52.213Z,97643.55
2023-05-06T16:25:40.610Z,97646.98
2023-05-06T16:29:33.191Z,97650.94
2023-05-06T16:33:20.687Z,97650.17
2023-05-06T16:37:08.219Z,97655.69
2023-05-06T16:40:55.489Z,97661.08
2023-05-06T16:44:43.076Z,97666.13
2023-05-06T16:48:38.046Z,97659.98
2023-05-06T16:52:25.489Z,97660.38
2023-05-06T17:00:19.995Z,97657.77
2023-05-06T17:04:11.669Z,97660.05
2023-05-06T17:08:08.728Z,97656.39
2023-05-06T17:11:56.135Z,97657.27
2023-05-06T17:15:43.904Z,97657.91
2023-05-06T17:19:35.904Z,97659.83
2023-05-06T17:22:46.037Z,97657.54
2023-05-06T17:26:33.498Z,97661.59
2023-05-06T17:30:02.584Z,97661.69
2023-05-06T17:33:29.822Z,97662.57
2023-05-06T17:37:19.181Z,97667.84
2023-05-06T17:41:07.036Z,97663.97
2023-05-06T17:44:56.934Z,97663.55
2023-05-06T17:48:55.678Z,97667.79
2023-05-06T17:52:47.420Z,97673.88
2023-05-06T17:56:45.151Z,97673.08
2023-05-06T18:00:40.729Z,97673.34
2023-05-06T18:04:28.841Z,97676.48
2023-05-06T18:08:18.290Z,97674.91
2023-05-06T18:11:57.001Z,97673.79
2023-05-06T18:15:44.275Z,97670.66
2023-05-06T18:19:33.059Z,97679.31
2023-05-06T18:23:20.854Z,97680.57
2023-05-06T18:27:09.633Z,97689.48
2023-05-06T18:35:15.739Z,97703.90
2023-05-06T18:37:42.968Z,97704.06
2023-05-06T18:40:10.498Z,97705.15
2023-05-06T18:42:38.468Z,97705.52
2023-05-06T18:45:07.424Z,97708.28
2023-05-06T18:47:34.762Z,97710.60
2023-05-06T18:50:02.787Z,97711.20
2023-05-06T18:52:29.940Z,97713.92
2023-05-06T18:54:57.141Z,97714.85
2023-05-06T18:57:26.887Z,97715.58
2023-05-06T18:59:54.057Z,97711.48
2023-05-06T19:02:21.282Z,97712.34
2023-05-06T19:04:48.784Z,97717.05
2023-05-06T19:07:16.472Z,97721.12
2023-05-06T19:09:43.684Z,97724.44
2023-05-06T19:12:11.117Z,97723.90
2023-05-06T19:14:38.531Z,97725.04
2023-05-06T19:17:05.900Z,97730.17
2023-05-06T19:19:33.547Z,97730.27
2023-05-06T19:22:02.125Z,97735.63
2023-05-06T19:24:30.396Z,97736.25
2023-05-06T19:26:58.138Z,97740.34
2023-05-06T19:29:25.415Z,97735.78
2023-05-06T19:31:52.676Z,97738.04
2023-05-06T19:34:20.306Z,97737.56
2023-05-06T19:36:47.919Z,97735.70
2023-05-06T19:39:16.686Z,97735.80
2023-05-06T19:41:43.963Z,97734.84
2023-05-06T19:44:11.352Z,97733.30
2023-05-06T19:46:38.693Z,97730.55
2023-05-06T19:49:07.328Z,97729.74
2023-05-06T19:51:34.973Z,97729.94
2023-05-06T19:54:02.129Z,97728.70
2023-05-06T19:56:29.890Z,97727.77
2023-05-06T19:58:57.053Z,97732.88
2023-05-06T20:01:24.888Z,97737.06
2023-05-06T20:03:52.586Z,97739.70
2023-05-06T20:06:19.983Z,97739.14
2023-05-06T20:08:47.222Z,97745.38
2023-05-06T20:11:14.697Z,97749.52
2023-05-06T20:13:41.945Z,97753.16
2023-05-06T20:16:09.502Z,97752.72
2023-05-06T20:18:37.643Z,97754.59
2023-05-06T20:21:05.219Z,97756.14
2023-05-06T20:23:32.548Z,97753.36
2023-05-06T20:25:59.815Z,97759.02
2023-05-06T20:28:27.262Z,97762.63
2023-05-06T20:30:55.960Z,97767.05
2023-05-06T20:33:23.292Z,97769.75
2023-05-06T20:35:51.524Z,97772.61
2023-05-06T20:38:19.853Z,97777.40
2023-05-06T20:40:48.536Z,97779.86
2023-05-06T20:43:16.600Z,97779.98
2023-05-06T20:45:44.255Z,97780.39
2023-05-06T20:48:13.602Z,97781.30
2023-05-06T20:50:42.427Z,97785.85
2023-05-06T20:53:09.538Z,97786.58
2023-05-06T20:55:37.037Z,97786.34
2023-05-06T20:58:04.790Z,97788.29
2023-05-06T21:00:32.253Z,97788.66
2023-05-06T21:02:59.798Z,97790.45
2023-05-06T21:05:27.212Z,97789.52
2023-05-06T21:07:54.317Z,97789.68
2023-05-06T21:10:21.770Z,97793.27
2023-05-06T21:12:50.644Z,97792.48
2023-05-06T21:15:18.357Z,97799.45
2023-05-06T21:17:46.090Z,97802.11
2023-05-06T21:20:13.765Z,97803.30
2023-05-06T21:22:41.024Z,97805.46
2023-05-06T21:25:09.380Z,97808.46
2023-05-06T21:27:36.748Z,97811.45
2023-05-06T21:30:04.271Z,97808.08
2023-05-06T21:32:33.598Z,97813.41
2023-05-06T21:35:03.930Z,97819.15
2023-05-06T21:37:31.313Z,97819.48
2023-05-06T21:39:58.539Z,97817.41
2023-05-06T21:42:25.800Z,97817.89
2023-05-06T21:44:52.908Z,97820.16
2023-05-06T21:47:20.412Z,97819.05
2023-05-06T21:49:47.634Z,97824.72
2023-05-06T21:52:14.935Z,97828.84
2023-05-06T21:54:42.883Z,97832.52
2023-05-06T21:57:10.229Z,97835.23
2023-05-06T21:59:37.341Z,97839.89
2023-05-06T22:02:05.085Z,97845.81
2023-05-06T22:04:32.516Z,97847.02
2023-05-06T22:06:59.797Z,97847.90
2023-05-06T22:09:27.097Z,97848.69
2023-05-06T22:11:54.308Z,97845.23
2023-05-06T22:14:24.345Z,97844.55
2023-05-06T22:16:55.009Z,97841.36
2023-05-06T22:19:22.973Z,97840.09
2023-05-06T22:21:50.240Z,97842.23
2023-05-06T22:24:18.008Z,97839.34
2023-05-06T22:26:45.302Z,97840.02
2023-05-06T22:29:12.506Z,97847.30
2023-05-06T22:31:40.326Z,97845.20
2023-05-06T22:34:07.558Z,97841.22
2023-05-06T22:36:34.917Z,97840.91
2023-05-06T22:39:02.614Z,97842.26
2023-05-06T22:41:31.133Z,97842.94
2023-05-06T22:44:00.654Z,97844.25
2023-05-06T22:46:29.206Z,97845.07
2023-05-06T22:48:56.486Z,97840.75
2023-05-06T22:51:23.556Z,97838.02
2023-05-06T22:53:50.836Z,97836.89
2023-05-06T22:56:19.452Z,97838.11
2023-05-06T22:58:46.762Z,97839.67
2023-05-06T23:01:14.245Z,97839.18
2023-05-06T23:03:41.478Z,97836.56
2023-05-06T23:06:08.877Z,97838.44
2023-05-06T23:08:36.533Z,97843.92
2023-05-06T23:11:03.798Z,97842.14
2023-05-06T23:13:36.481Z,97839.61
2023-05-06T23:16:04.172Z,97847.37
2023-05-06T23:18:31.351Z,97847.39
2023-05-06T23:20:58.596Z,97848.42
2023-05-06T23:23:25.857Z,97852.66
2023-05-06T23:25:53.718Z,97852.55
2023-05-06T23:28:21.619Z,97853.07
2023-05-06T23:30:49.360Z,97853.64
2023-05-06T23:33:16.688Z,97856.23
2023-05-06T23:35:43.813Z,97856.84
2023-05-06T23:38:11.114Z,97856.54
2023-05-06T23:40:38.316Z,97855.14
2023-05-06T23:43:07.608Z,97856.54
2023-05-06T23:45:35.097Z,97856.02
2023-05-06T23:48:02.445Z,97859.63
2023-05-06T23:50:29.785Z,97860.79
2023-05-06T23:52:56.933Z,97863.31
2023-05-06T23:55:26.577Z,97868.02
2023-05-06T23:57:53.863Z,97865.10
